Map

Track Data

SID SEASON NUMBER BASIN SUBBASIN NAME ISO_TIME NATURE LAT LON WMO_WIND WMO_PRES WMO_AGENCY TRACK_TYPE DIST2LAND LANDFALL IFLAG USA_AGENCY USA_ATCF_ID USA_LAT USA_LON USA_RECORD USA_STATUS USA_WIND USA_PRES USA_SSHS USA_R34_NE USA_R34_SE USA_R34_SW USA_R34_NW USA_R50_NE USA_R50_SE USA_R50_SW USA_R50_NW USA_R64_NE USA_R64_SE USA_R64_SW USA_R64_NW USA_POCI USA_ROCI USA_RMW USA_EYE TOKYO_LAT TOKYO_LON TOKYO_GRADE TOKYO_WIND TOKYO_PRES TOKYO_R50_DIR TOKYO_R50_LONG TOKYO_R50_SHORT TOKYO_R30_DIR TOKYO_R30_LONG TOKYO_R30_SHORT TOKYO_LAND CMA_LAT CMA_LON CMA_CAT CMA_WIND CMA_PRES HKO_LAT HKO_LON HKO_CAT HKO_WIND HKO_PRES NEWDELHI_LAT NEWDELHI_LON NEWDELHI_GRADE NEWDELHI_WIND NEWDELHI_PRES NEWDELHI_CI NEWDELHI_DP NEWDELHI_POCI REUNION_LAT REUNION_LON REUNION_TYPE REUNION_WIND REUNION_PRES REUNION_TNUM REUNION_CI REUNION_RMW REUNION_R34_NE REUNION_R34_SE REUNION_R34_SW REUNION_R34_NW REUNION_R50_NE REUNION_R50_SE REUNION_R50_SW REUNION_R50_NW REUNION_R64_NE REUNION_R64_SE REUNION_R64_SW REUNION_R64_NW BOM_LAT BOM_LON BOM_TYPE BOM_WIND BOM_PRES BOM_TNUM BOM_CI BOM_RMW BOM_R34_NE BOM_R34_SE BOM_R34_SW BOM_R34_NW BOM_R50_NE BOM_R50_SE BOM_R50_SW BOM_R50_NW BOM_R64_NE BOM_R64_SE BOM_R64_SW BOM_R64_NW BOM_ROCI BOM_POCI BOM_EYE BOM_POS_METHOD BOM_PRES_METHOD NADI_LAT NADI_LON NADI_CAT NADI_WIND NADI_PRES WELLINGTON_LAT WELLINGTON_LON WELLINGTON_WIND WELLINGTON_PRES DS824_LAT DS824_LON DS824_STAGE DS824_WIND DS824_PRES TD9636_LAT TD9636_LON TD9636_STAGE TD9636_WIND TD9636_PRES TD9635_LAT TD9635_LON TD9635_WIND TD9635_PRES TD9635_ROCI NEUMANN_LAT NEUMANN_LON NEUMANN_CLASS NEUMANN_WIND NEUMANN_PRES MLC_LAT MLC_LON MLC_CLASS MLC_WIND MLC_PRES USA_GUST BOM_GUST BOM_GUST_PER REUNION_GUST REUNION_GUST_PER USA_SEAHGT USA_SEARAD_NE USA_SEARAD_SE USA_SEARAD_SW USA_SEARAD_NW STORM_SPEED STORM_DIR
1949246N19295 1949 67 NA CS NOT_NAMED 1949-09-03 00:00:00 TS 18.5000 -65.4000 30 hurdat_atl main 23 15 O_____________ hurdat_atl AL041949 18.5000 -65.4000 TD 30 -1 6 303
1949246N19295 1949 67 NA CS NOT_NAMED 1949-09-03 03:00:00 TS 18.6576 -65.6575 main 33 33 P_____________ AL041949 18.6576 -65.6575 TD 35 0 6 310
1949246N19295 1949 67 NA NA NOT_NAMED 1949-09-03 06:00:00 TS 18.9000 -65.9000 40 hurdat_atl main 55 55 O_____________ hurdat_atl AL041949 18.9000 -65.9000 TS 40 0 8 326
1949246N19295 1949 67 NA NA NOT_NAMED 1949-09-03 09:00:00 TS 19.2900 -66.1150 main 100 100 P_____________ AL041949 19.2900 -66.1150 TS 47 0 10 337
1949246N19295 1949 67 NA NA NOT_NAMED 1949-09-03 12:00:00 TS 19.8000 -66.3000 55 hurdat_atl main 156 156 O_____________ hurdat_atl AL041949 19.8000 -66.3000 TS 55 0 12 343
1949246N19295 1949 67 NA NA NOT_NAMED 1949-09-03 15:00:00 TS 20.3850 -66.4650 main 223 223 P_____________ AL041949 20.3850 -66.4650 TS 62 0 12 347
1949246N19295 1949 67 NA NA NOT_NAMED 1949-09-03 18:00:00 TS 21.0000 -66.6000 70 987 hurdat_atl main 290 290 O_____________ hurdat_atl AL041949 21.0000 -66.6000 HU 70 987 1 12 349
1949246N19295 1949 67 NA NA NOT_NAMED 1949-09-03 21:00:00 TS 21.5725 -66.7076 main 357 357 P_____________ AL041949 21.5725 -66.7076 HU 67 989 1 11 350
1949246N19295 1949 67 NA NA NOT_NAMED 1949-09-04 00:00:00 TS 22.1000 -66.8000 65 hurdat_atl main 406 406 I_____________ hurdat_atl AL041949 22.1000 -66.8000 HU 65 991 1 10 350
1949246N19295 1949 67 NA NA NOT_NAMED 1949-09-04 03:00:00 TS 22.5950 -66.9000 main 445 445 P_____________ AL041949 22.5950 -66.9000 HU 62 993 0 9 348
1949246N19295 1949 67 NA NA NOT_NAMED 1949-09-04 06:00:00 TS 23.0000 -67.0000 60 995 hurdat_atl main 477 477 O_____________ hurdat_atl AL041949 23.0000 -67.0000 TS 60 995 0 7 345
1949246N19295 1949 67 NA NA NOT_NAMED 1949-09-04 09:00:00 TS 23.2725 -67.1001 main 501 501 P_____________ AL041949 23.2725 -67.1001 TS 60 994 0 5 340
1949246N19295 1949 67 NA NA NOT_NAMED 1949-09-04 12:00:00 TS 23.5000 -67.2000 60 994 hurdat_atl main 517 517 O_____________ hurdat_atl AL041949 23.5000 -67.2000 TS 60 994 0 6 339
1949246N19295 1949 67 NA NA NOT_NAMED 1949-09-04 15:00:00 TS 23.7925 -67.3149 main 543 543 P_____________ AL041949 23.7925 -67.3149 TS 60 994 0 6 343
1949246N19295 1949 67 NA NA NOT_NAMED 1949-09-04 18:00:00 TS 24.1000 -67.4000 60 994 hurdat_atl main 570 570 O_____________ hurdat_atl AL041949 24.1000 -67.4000 TS 60 994 0 6 350
1949246N19295 1949 67 NA NA NOT_NAMED 1949-09-04 21:00:00 TS 24.4075 -67.4300 main 599 599 P_____________ AL041949 24.4075 -67.4300 TS 62 0 6 1
1949246N19295 1949 67 NA NA NOT_NAMED 1949-09-05 00:00:00 TS 24.7000 -67.4000 65 hurdat_atl main 629 629 O_____________ hurdat_atl AL041949 24.7000 -67.4000 HU 65 1 6 11
1949246N19295 1949 67 NA NA NOT_NAMED 1949-09-05 03:00:00 TS 24.9650 -67.3151 main 664 664 P_____________ AL041949 24.9650 -67.3151 HU 67 1 5 20
1949246N19295 1949 67 NA NA NOT_NAMED 1949-09-05 06:00:00 TS 25.2000 -67.2000 70 hurdat_atl main 688 688 O_____________ hurdat_atl AL041949 25.2000 -67.2000 HU 70 1 5 23
1949246N19295 1949 67 NA NA NOT_NAMED 1949-09-05 09:00:00 TS 25.4150 -67.1074 main 713 713 P_____________ AL041949 25.4150 -67.1074 HU 72 1 4 24
1949246N19295 1949 67 NA NA NOT_NAMED 1949-09-05 12:00:00 TS 25.6000 -67.0000 75 hurdat_atl main 737 737 O_____________ hurdat_atl AL041949 25.6000 -67.0000 HU 75 1 4 32
1949246N19295 1949 67 NA NA NOT_NAMED 1949-09-05 15:00:00 TS 25.7725 -66.8575 main 762 762 P_____________ AL041949 25.7725 -66.8575 HU 77 1 4 42
1949246N19295 1949 67 NA NA NOT_NAMED 1949-09-05 18:00:00 TS 25.9000 -66.7000 80 982 hurdat_atl main 781 781 O_____________ hurdat_atl AL041949 25.9000 -66.7000 HU 80 982 1 3 53
1949246N19295 1949 67 NA NA NOT_NAMED 1949-09-05 21:00:00 TS 25.9724 -66.5650 main 795 795 P_____________ AL041949 25.9724 -66.5650 HU 85 978 2 3 69
1949246N19295 1949 67 NA NA NOT_NAMED 1949-09-06 00:00:00 TS 26.0000 -66.4000 90 974 hurdat_atl main 804 804 O_____________ hurdat_atl AL041949 26.0000 -66.4000 HU 90 974 2 4 86
1949246N19295 1949 67 NA NA NOT_NAMED 1949-09-06 03:00:00 TS 26.0000 -66.1724 main 813 813 P_____________ AL041949 26.0000 -66.1724 HU 92 2 4 90
1949246N19295 1949 67 NA NA NOT_NAMED 1949-09-06 06:00:00 TS 26.0000 -65.9000 95 hurdat_atl main 826 826 O_____________ hurdat_atl AL041949 26.0000 -65.9000 HU 95 2 5 86
1949246N19295 1949 67 NA NA NOT_NAMED 1949-09-06 09:00:00 TS 26.0351 -65.5925 main 839 839 P_____________ AL041949 26.0351 -65.5925 HU 97 3 5 79
1949246N19295 1949 67 NA NA NOT_NAMED 1949-09-06 12:00:00 TS 26.1000 -65.3000 100 hurdat_atl main 861 861 O_____________ hurdat_atl AL041949 26.1000 -65.3000 HU 100 3 5 71
1949246N19295 1949 67 NA NA NOT_NAMED 1949-09-06 15:00:00 TS 26.1924 -65.0700 main 873 873 P_____________ AL041949 26.1924 -65.0700 HU 100 3 4 61
1949246N19295 1949 67 NA NA NOT_NAMED 1949-09-06 18:00:00 TS 26.3000 -64.9000 100 hurdat_atl main 886 886 O_____________ hurdat_atl AL041949 26.3000 -64.9000 HU 100 3 3 51
1949246N19295 1949 67 NA NA NOT_NAMED 1949-09-06 21:00:00 TS 26.4000 -64.7849 main 898 898 P_____________ AL041949 26.4000 -64.7849 HU 100 3 3 42
1949246N19295 1949 67 NA NA NOT_NAMED 1949-09-07 00:00:00 TS 26.5000 -64.7000 100 hurdat_atl main 910 910 O_____________ hurdat_atl AL041949 26.5000 -64.7000 HU 100 3 2 44
1949246N19295 1949 67 NA NA NOT_NAMED 1949-09-07 03:00:00 TS 26.5775 -64.5925 main 922 922 P_____________ AL041949 26.5775 -64.5925 HU 100 3 3 42
1949246N19295 1949 67 NA NA NOT_NAMED 1949-09-07 06:00:00 TS 26.7000 -64.5000 100 hurdat_atl main 934 934 O_____________ hurdat_atl AL041949 26.7000 -64.5000 HU 100 3 3 26
1949246N19295 1949 67 NA NA NOT_NAMED 1949-09-07 09:00:00 TS 26.8750 -64.4350 main 958 958 P_____________ AL041949 26.8750 -64.4350 HU 100 3 5 10
1949246N19295 1949 67 NA NA NOT_NAMED 1949-09-07 12:00:00 TS 27.2000 -64.4000 100 hurdat_atl main 991 991 O_____________ hurdat_atl AL041949 27.2000 -64.4000 HU 100 3 9 3
1949246N19295 1949 67 NA NA NOT_NAMED 1949-09-07 15:00:00 TS 27.7400 -64.3998 main 1046 1046 P_____________ AL041949 27.7400 -64.3998 HU 102 3 12 1
1949246N19295 1949 67 NA NA NOT_NAMED 1949-09-07 18:00:00 TS 28.4000 -64.4000 105 hurdat_atl main 1124 1124 O_____________ hurdat_atl AL041949 28.4000 -64.4000 HU 105 3 13 1
1949246N19295 1949 67 NA NA NOT_NAMED 1949-09-07 21:00:00 TS 29.0650 -64.3650 main 1201 1201 P_____________ AL041949 29.0650 -64.3650 HU 107 3 13 4
1949246N19295 1949 67 NA NA NOT_NAMED 1949-09-08 00:00:00 TS 29.7000 -64.3000 110 hurdat_atl main 1245 1221 O_____________ hurdat_atl AL041949 29.7000 -64.3000 HU 110 3 12 7
1949246N19295 1949 67 NA NA NOT_NAMED 1949-09-08 03:00:00 TS 30.2225 -64.2149 main 1221 1200 P_____________ AL041949 30.2225 -64.2149 HU 110 3 10 10
1949246N19295 1949 67 NA NA NOT_NAMED 1949-09-08 06:00:00 TS 30.7000 -64.1000 110 hurdat_atl main 1200 1185 O_____________ hurdat_atl AL041949 30.7000 -64.1000 HU 110 3 10 12
1949246N19295 1949 67 NA NA NOT_NAMED 1949-09-08 09:00:00 TS 31.1774 -63.9794 main 1180 1171 P_____________ AL041949 31.1774 -63.9794 HU 110 3 10 14
1949246N19295 1949 67 NA NA NOT_NAMED 1949-09-08 12:00:00 TS 31.7000 -63.8000 110 hurdat_atl main 1171 1160 O_____________ hurdat_atl AL041949 31.7000 -63.8000 HU 110 3 12 17
1949246N19295 1949 67 NA NA NOT_NAMED 1949-09-08 15:00:00 TS 32.3197 -63.5592 main 1160 1138 P_____________ AL041949 32.3197 -63.5592 HU 110 3 14 21
1949246N19295 1949 67 NA NA NOT_NAMED 1949-09-08 18:00:00 TS 33.0000 -63.2000 110 hurdat_atl main 1138 1096 O_____________ hurdat_atl AL041949 33.0000 -63.2000 HU 110 3 16 28
1949246N19295 1949 67 NA NA NOT_NAMED 1949-09-08 21:00:00 TS 33.6927 -62.6876 main 1096 1049 P_____________ AL041949 33.6927 -62.6876 HU 110 3 17 33
1949246N19295 1949 67 NA NA NOT_NAMED 1949-09-09 00:00:00 TS 34.4000 -62.1000 110 hurdat_atl main 1049 997 O_____________ hurdat_atl AL041949 34.4000 -62.1000 HU 110 3 17 34
1949246N19295 1949 67 NA NA NOT_NAMED 1949-09-09 03:00:00 TS 35.0697 -61.5557 main 987 931 P_____________ AL041949 35.0697 -61.5557 HU 107 3 17 33
1949246N19295 1949 67 NA NA NOT_NAMED 1949-09-09 06:00:00 TS 35.8000 -61.0000 105 hurdat_atl main 931 872 O_____________ hurdat_atl AL041949 35.8000 -61.0000 HU 105 3 18 31
1949246N19295 1949 67 NA NA NOT_NAMED 1949-09-09 09:00:00 TS 36.6325 -60.3989 main 872 807 P_____________ AL041949 36.6325 -60.3989 HU 100 3 20 28
1949246N19295 1949 67 NA NA NOT_NAMED 1949-09-09 12:00:00 TS 37.6000 -59.8000 95 hurdat_atl main 803 737 O_____________ hurdat_atl AL041949 37.6000 -59.8000 HU 95 2 23 24
1949246N19295 1949 67 NA NA NOT_NAMED 1949-09-09 15:00:00 TS 38.6974 -59.2267 main 730 629 P_____________ AL041949 38.6974 -59.2267 HU 90 2 25 20
1949246N19295 1949 67 NA NA NOT_NAMED 1949-09-09 18:00:00 TS 39.9000 -58.7000 85 hurdat_atl main 621 508 O_____________ hurdat_atl AL041949 39.9000 -58.7000 HU 85 2 25 17
1949246N19295 1949 67 NA NA NOT_NAMED 1949-09-09 21:00:00 TS 41.1266 -58.2749 main 508 411 P_____________ AL041949 41.1266 -58.2749 HU 80 1 26 15
1949246N19295 1949 67 NA NA NOT_NAMED 1949-09-10 00:00:00 TS 42.4000 -57.8000 75 hurdat_atl main 407 337 O_____________ hurdat_atl AL041949 42.4000 -57.8000 HU 75 1 26 18
1949246N19295 1949 67 NA NA NOT_NAMED 1949-09-10 03:00:00 TS 43.5927 -57.1995 main 334 217 P_____________ AL041949 43.5927 -57.1995 HU 70 1 28 23
1949246N19295 1949 67 NA NA NOT_NAMED 1949-09-10 06:00:00 ET 45.0000 -56.3000 65 hurdat_atl main 205 40 O_____________ hurdat_atl AL041949 45.0000 -56.3000 EX 65 -4 36 28
1949246N19295 1949 67 NA NA NOT_NAMED 1949-09-10 09:00:00 ET 46.8201 -54.8200 main 37 0 P_____________ AL041949 46.8201 -54.8200 EX 62 -4 44 29
1949246N19295 1949 67 NA NA NOT_NAMED 1949-09-10 12:00:00 ET 48.9000 -53.2000 60 hurdat_atl main 31 31 O_____________ hurdat_atl AL041949 48.9000 -53.2000 EX 60 -4 47 24
1949246N19295 1949 67 NA NA NOT_NAMED 1949-09-10 15:00:00 ET 51.1269 -51.9667 main 226 226 P_____________ AL041949 51.1269 -51.9667 EX 60 -4 46 18
1949246N19295 1949 67 NA NA NOT_NAMED 1949-09-10 18:00:00 ET 53.3000 -50.9000 60 hurdat_atl main 323 323 O_____________ hurdat_atl AL041949 53.3000 -50.9000 EX 60 -4 43 18
1949246N19295 1949 67 NA NA NOT_NAMED 1949-09-10 21:00:00 ET 55.2367 -49.7604 main 436 430 P_____________ AL041949 55.2367 -49.7604 EX 60 -4 37 19
1949246N19295 1949 67 NA NA NOT_NAMED 1949-09-11 00:00:00 ET 56.8000 -48.8000 60 hurdat_atl main 420 306 O_____________ hurdat_atl AL041949 56.8000 -48.8000 EX 60 -4 27 19
1949246N19295 1949 67 NA NA NOT_NAMED 1949-09-11 03:00:00 ET 57.8382 -48.1359 main 303 217 P_____________ AL041949 57.8382 -48.1359 EX 55 -4 20 17
1949246N19295 1949 67 NA NA NOT_NAMED 1949-09-11 06:00:00 ET 58.7000 -47.7000 50 hurdat_atl main 209 121 O_____________ hurdat_atl AL041949 58.7000 -47.7000 EX 50 -4 20 13
1949246N19295 1949 67 NA NA NOT_NAMED 1949-09-11 09:00:00 ET 59.7710 -47.3072 main 112 0 P_____________ AL041949 59.7710 -47.3072 EX 47 -4 23 10
1949246N19295 1949 67 NA NA NOT_NAMED 1949-09-11 12:00:00 ET 61.0000 -46.9000 45 hurdat_atl main 0 O_____________ hurdat_atl AL041949 61.0000 -46.9000 EX 45 -4 25 9

About IBTrACS Database

This database is a web-friendly format of International Best Track Archive for Climate Stewardship (IBTrACS), a global best track data archive curated by NOAA dating back to 1842.

Updated: 2021-12-03